createdAt,value
2022-10-25T00:00:50.613Z,84.07
2022-10-25T00:03:30.007Z,203.00
2022-10-25T00:05:56.842Z,136.38
2022-10-25T00:08:23.918Z,140.77
2022-10-25T00:10:50.732Z,59.92
2022-10-25T00:13:17.825Z,66.32
2022-10-25T00:15:44.706Z,61.28
2022-10-25T00:18:11.773Z,68.50
2022-10-25T00:20:38.768Z,64.07
2022-10-25T00:23:05.938Z,68.57
2022-10-25T00:25:32.807Z,62.88
2022-10-25T00:27:59.892Z,93.70
2022-10-25T00:30:26.748Z,63.72
2022-10-25T00:32:54.549Z,67.28
2022-10-25T00:35:21.450Z,61.55
2022-10-25T00:37:48.984Z,61.50
2022-10-25T00:40:16.046Z,54.38
2022-10-25T00:42:43.540Z,50.75
2022-10-25T00:45:25.180Z,57.42
2022-10-25T00:48:02.162Z,51.63
2022-10-25T00:50:29.004Z,50.47
2022-10-25T00:53:00.146Z,51.78
2022-10-25T00:55:27.880Z,58.47
2022-10-25T00:58:10.512Z,57.58
2022-10-25T01:00:37.531Z,54.00
2022-10-25T01:03:05.832Z,51.42
2022-10-25T01:05:34.289Z,51.35
2022-10-25T01:08:01.592Z,54.70
2022-10-25T01:10:29.614Z,51.80
2022-10-25T01:12:56.976Z,56.00
2022-10-25T01:15:29.770Z,53.53
2022-10-25T01:18:12.417Z,53.75
2022-10-25T01:21:07.230Z,52.78
2022-10-25T01:24:16.006Z,52.72
2022-10-25T01:27:01.110Z,51.97
2022-10-25T01:29:46.563Z,51.30
2022-10-25T01:32:22.975Z,54.50
2022-10-25T01:34:58.998Z,50.95
2022-10-25T01:37:34.324Z,53.83
2022-10-25T01:40:23.907Z,57.67
2022-10-25T01:43:02.912Z,56.97
2022-10-25T01:45:34.371Z,58.10
2022-10-25T01:48:04.168Z,56.10
2022-10-25T01:50:33.658Z,72.97
2022-10-25T01:53:00.523Z,58.55
2022-10-25T01:55:35.127Z,60.95
2022-10-25T01:58:27.977Z,57.10
2022-10-25T02:00:59.443Z,54.88
2022-10-25T02:03:40.483Z,57.28
2022-10-25T02:06:07.596Z,56.08
2022-10-25T02:08:34.356Z,57.88
2022-10-25T02:11:18.215Z,59.25
2022-10-25T02:14:27.838Z,54.50
2022-10-25T02:17:01.065Z,53.15
2022-10-25T02:19:50.093Z,56.15
2022-10-25T02:22:19.981Z,59.67
2022-10-25T02:24:47.787Z,61.85
2022-10-25T02:27:15.754Z,56.00
2022-10-25T02:29:43.172Z,53.63
2022-10-25T02:32:10.011Z,57.67
2022-10-25T02:34:37.162Z,58.95
2022-10-25T02:37:04.041Z,57.88
2022-10-25T02:39:31.897Z,61.08
2022-10-25T02:42:02.403Z,63.40
2022-10-25T02:44:29.590Z,57.85
2022-10-25T02:46:56.487Z,56.30
2022-10-25T02:49:23.597Z,60.13
2022-10-25T02:54:18.508Z,57.03
2022-10-25T02:56:45.411Z,55.85
2022-10-25T02:59:15.395Z,59.47
2022-10-25T03:01:42.326Z,55.83
2022-10-25T03:04:09.436Z,63.95
2022-10-25T03:06:36.310Z,61.90
2022-10-25T03:09:03.868Z,61.42
2022-10-25T03:11:30.759Z,77.18
2022-10-25T03:13:57.842Z,87.47
2022-10-25T03:16:24.708Z,85.60
2022-10-25T03:18:51.831Z,65.88
2022-10-25T03:21:18.663Z,58.03
2022-10-25T03:23:46.005Z,61.88
2022-10-25T03:26:12.936Z,61.47
2022-10-25T03:28:39.976Z,66.95
2022-10-25T03:31:12.699Z,61.22
2022-10-25T03:33:40.598Z,61.15
2022-10-25T03:36:07.846Z,59.08
2022-10-25T03:38:35.468Z,58.65
2022-10-25T03:41:02.323Z,56.40
2022-10-25T03:43:29.474Z,61.10
2022-10-25T03:45:56.519Z,58.83
2022-10-25T03:48:23.679Z,60.33
2022-10-25T03:50:50.627Z,62.65
2022-10-25T03:53:17.760Z,62.47
2022-10-25T03:55:44.795Z,58.85
2022-10-25T03:58:11.819Z,58.53
2022-10-25T04:00:38.901Z,60.05
2022-10-25T04:05:33.873Z,57.75
2022-10-25T04:08:01.237Z,54.50
2022-10-25T04:10:28.143Z,56.78
2022-10-25T04:12:55.547Z,55.42
2022-10-25T04:15:23.259Z,55.75
2022-10-25T04:17:51.658Z,58.78
2022-10-25T04:20:18.928Z,63.72
2022-10-25T04:22:46.255Z,60.78
2022-10-25T04:25:13.147Z,66.45
2022-10-25T04:27:40.191Z,64.15
2022-10-25T04:30:07.539Z,57.65
2022-10-25T04:32:34.567Z,60.67
2022-10-25T04:35:01.439Z,66.00
2022-10-25T04:37:28.482Z,72.45
2022-10-25T04:39:55.405Z,72.57
2022-10-25T04:42:22.448Z,72.53
2022-10-25T04:44:49.326Z,72.13
2022-10-25T04:47:16.768Z,76.90
2022-10-25T04:49:43.608Z,88.50
2022-10-25T04:52:10.939Z,82.05
2022-10-25T04:54:37.821Z,89.32
2022-10-25T04:57:07.195Z,86.50
2022-10-25T04:59:34.319Z,80.32
2022-10-25T05:02:01.993Z,84.65
2022-10-25T05:04:28.863Z,86.93
2022-10-25T05:06:55.985Z,91.22
2022-10-25T05:09:22.976Z,83.18
2022-10-25T05:11:50.196Z,79.82
2022-10-25T05:14:17.050Z,83.68
2022-10-25T05:16:44.173Z,82.38
2022-10-25T05:19:11.080Z,76.32
2022-10-25T05:21:38.149Z,78.75
2022-10-25T05:24:05.245Z,83.57
2022-10-25T05:26:32.564Z,73.95
2022-10-25T05:28:59.646Z,75.00
2022-10-25T05:31:29.053Z,72.93
2022-10-25T05:34:00.493Z,77.70
2022-10-25T05:36:32.938Z,72.50
2022-10-25T05:39:03.668Z,69.93
2022-10-25T05:41:33.383Z,72.63
2022-10-25T05:44:03.177Z,67.35
2022-10-25T05:46:30.394Z,76.68
2022-10-25T05:48:59.135Z,72.82
2022-10-25T05:51:33.325Z,74.20
2022-10-25T05:54:12.098Z,68.65
2022-10-25T05:56:40.427Z,64.03
2022-10-25T05:59:14.875Z,69.55
2022-10-25T06:01:44.391Z,74.90
2022-10-25T06:04:11.986Z,76.35
2022-10-25T06:06:40.264Z,85.18
2022-10-25T06:09:07.561Z,104.75
2022-10-25T06:11:34.971Z,86.88
2022-10-25T06:14:01.902Z,82.55
2022-10-25T06:16:29.197Z,71.38
2022-10-25T06:18:56.179Z,73.82
2022-10-25T06:21:25.425Z,69.93
2022-10-25T06:23:53.023Z,75.40
2022-10-25T06:26:25.155Z,70.35
2022-10-25T06:28:54.362Z,68.90
2022-10-25T06:31:21.952Z,76.78
2022-10-25T06:33:48.904Z,71.32
2022-10-25T06:36:18.025Z,73.43
2022-10-25T06:38:45.841Z,73.50
2022-10-25T06:41:17.882Z,68.30
2022-10-25T06:43:44.888Z,70.97
2022-10-25T06:46:30.111Z,77.20
2022-10-25T06:48:57.960Z,67.32
2022-10-25T06:51:26.942Z,67.20
2022-10-25T06:53:55.172Z,74.90
2022-10-25T06:56:22.638Z,68.57
2022-10-25T06:58:49.534Z,68.03
2022-10-25T07:01:18.224Z,68.13
2022-10-25T07:03:46.228Z,66.50
2022-10-25T07:06:14.749Z,69.90
2022-10-25T07:08:43.449Z,65.10
2022-10-25T07:11:18.426Z,62.75
2022-10-25T07:13:45.683Z,69.93
2022-10-25T07:16:17.384Z,67.35
2022-10-25T07:18:45.193Z,65.18
2022-10-25T07:21:15.266Z,70.97
2022-10-25T07:23:42.669Z,68.28
2022-10-25T07:26:14.957Z,62.88
2022-10-25T07:28:43.911Z,67.80
2022-10-25T07:31:19.038Z,65.35
2022-10-25T07:33:45.947Z,72.07
2022-10-25T07:36:13.063Z,69.40
2022-10-25T07:38:40.200Z,69.70
2022-10-25T07:41:08.225Z,71.90
2022-10-25T07:43:35.405Z,81.10
2022-10-25T07:46:03.252Z,84.28
2022-10-25T07:48:30.216Z,82.57
2022-10-25T07:50:57.330Z,78.60
2022-10-25T07:53:24.222Z,84.38
2022-10-25T07:55:52.399Z,83.20
2022-10-25T07:58:19.512Z,80.03
2022-10-25T08:00:46.946Z,76.43
2022-10-25T08:03:15.545Z,68.35
2022-10-25T08:05:46.644Z,70.80
2022-10-25T08:08:14.244Z,71.18
2022-10-25T08:10:42.352Z,66.45
2022-10-25T08:13:09.433Z,68.57
2022-10-25T08:15:36.818Z,62.97
2022-10-25T08:18:04.309Z,62.00
2022-10-25T08:20:56.433Z,64.10
2022-10-25T08:23:18.674Z,56.22
2022-10-25T08:25:46.229Z,55.28
2022-10-25T08:28:13.312Z,61.22
2022-10-25T08:30:41.432Z,55.42
2022-10-25T08:33:11.603Z,53.25
2022-10-25T08:35:39.563Z,57.97
2022-10-25T08:38:06.676Z,53.95
2022-10-25T08:41:01.392Z,51.85
2022-10-25T08:44:06.000Z,47.78
2022-10-25T08:46:55.036Z,48.85
2022-10-25T08:49:55.070Z,50.97
2022-10-25T08:52:26.635Z,48.38
2022-10-25T08:54:53.675Z,43.03
2022-10-25T08:57:26.014Z,42.90
2022-10-25T08:59:59.426Z,44.33
2022-10-25T09:02:40.268Z,44.92
2022-10-25T09:05:44.770Z,42.03
2022-10-25T09:08:45.807Z,38.05
2022-10-25T09:11:33.762Z,38.38
2022-10-25T09:14:03.918Z,43.13
2022-10-25T09:17:12.198Z,40.22
2022-10-25T09:19:44.511Z,37.58
2022-10-25T09:22:35.590Z,38.80
2022-10-25T09:25:07.164Z,37.08
2022-10-25T09:27:35.370Z,36.22
2022-10-25T09:30:09.094Z,35.58
2022-10-25T09:32:48.383Z,33.97
2022-10-25T09:35:21.466Z,34.97
2022-10-25T09:38:14.024Z,35.97
2022-10-25T09:40:47.924Z,32.30
2022-10-25T09:43:19.014Z,28.92
2022-10-25T09:46:01.559Z,28.60
2022-10-25T09:48:50.088Z,25.52
2022-10-25T09:51:26.168Z,30.33
2022-10-25T09:53:53.407Z,28.15
2022-10-25T09:56:20.501Z,27.38
2022-10-25T09:58:47.614Z,29.58
2022-10-25T10:01:26.979Z,29.42
2022-10-25T10:04:00.363Z,28.77
2022-10-25T10:06:37.898Z,27.83
2022-10-25T10:09:07.733Z,28.95
2022-10-25T10:11:36.013Z,30.67
2022-10-25T10:14:29.688Z,37.35
2022-10-25T10:16:58.104Z,34.03
2022-10-25T10:19:26.762Z,33.08
2022-10-25T10:21:56.620Z,35.22
2022-10-25T10:24:27.066Z,29.17
2022-10-25T10:26:59.319Z,36.53
2022-10-25T10:29:31.177Z,31.02
2022-10-25T10:32:01.446Z,32.45
2022-10-25T10:34:32.136Z,34.92
2022-10-25T10:37:17.403Z,30.50
2022-10-25T10:39:55.725Z,29.40
2022-10-25T10:42:34.179Z,30.92
2022-10-25T10:45:11.915Z,31.08
2022-10-25T10:47:51.056Z,31.50
2022-10-25T10:50:24.396Z,27.50
2022-10-25T10:52:58.266Z,27.55
2022-10-25T10:55:35.631Z,29.60
2022-10-25T10:58:07.427Z,25.25
2022-10-25T11:00:35.011Z,26.55
2022-10-25T11:03:02.179Z,28.17
2022-10-25T11:05:31.932Z,28.38
2022-10-25T11:08:17.596Z,26.17
2022-10-25T11:10:44.528Z,23.25
2022-10-25T11:13:16.808Z,25.60
2022-10-25T11:16:08.641Z,23.73
2022-10-25T11:19:00.037Z,22.23
2022-10-25T11:21:36.901Z,26.10
2022-10-25T11:24:49.809Z,25.65
2022-10-25T11:27:16.671Z,26.73
2022-10-25T11:29:56.220Z,24.00
2022-10-25T11:32:55.540Z,23.58
2022-10-25T11:35:44.916Z,26.05
2022-10-25T11:38:15.531Z,27.67
2022-10-25T11:40:55.502Z,28.42
2022-10-25T11:44:16.609Z,24.90
2022-10-25T11:46:49.212Z,27.67
2022-10-25T11:49:38.378Z,25.55
2022-10-25T11:55:18.095Z,27.50
2022-10-25T11:58:12.897Z,26.40
2022-10-25T12:00:56.340Z,23.48
2022-10-25T12:03:41.700Z,22.75
2022-10-25T12:06:08.622Z,23.83
2022-10-25T12:09:08.037Z,21.42
2022-10-25T12:11:41.613Z,24.08
2022-10-25T12:14:12.885Z,17.52
2022-10-25T12:16:40.708Z,23.33
2022-10-25T12:19:24.317Z,20.13
2022-10-25T12:22:05.222Z,21.02
2022-10-25T12:24:51.991Z,15.38
2022-10-25T12:27:20.006Z,16.85
2022-10-25T12:29:51.362Z,21.38
2022-10-25T12:32:25.748Z,15.70
2022-10-25T12:34:54.271Z,18.95
2022-10-25T12:37:36.562Z,17.08
2022-10-25T12:40:05.459Z,17.63
2022-10-25T12:42:46.133Z,17.65
2022-10-25T12:45:25.587Z,22.88
2022-10-25T12:48:04.564Z,16.48
2022-10-25T12:50:34.536Z,17.30
2022-10-25T12:53:17.603Z,19.30
2022-10-25T12:55:44.696Z,18.63
2022-10-25T12:58:45.393Z,18.38
2022-10-25T13:01:57.804Z,17.27
2022-10-25T13:04:56.032Z,20.02
2022-10-25T13:07:23.508Z,15.70
2022-10-25T13:09:50.762Z,22.02
2022-10-25T13:12:36.041Z,17.70
2022-10-25T13:15:03.682Z,15.60
2022-10-25T13:17:44.732Z,17.63
2022-10-25T13:20:22.840Z,20.45
2022-10-25T13:22:50.076Z,15.07
2022-10-25T13:25:32.268Z,15.32
2022-10-25T13:28:11.266Z,14.65
2022-10-25T13:30:38.188Z,18.05
2022-10-25T13:33:24.416Z,16.88
2022-10-25T13:35:51.480Z,16.02
2022-10-25T13:38:24.688Z,16.85
2022-10-25T13:41:17.159Z,17.08
2022-10-25T13:44:17.519Z,16.73
2022-10-25T13:46:44.411Z,17.27
2022-10-25T13:49:26.680Z,20.83
2022-10-25T13:51:58.094Z,14.98
2022-10-25T13:54:29.916Z,17.83
2022-10-25T13:56:56.768Z,18.27
2022-10-25T13:59:37.547Z,16.88
2022-10-25T14:02:15.796Z,23.75
2022-10-25T14:04:43.022Z,17.48
2022-10-25T14:07:46.552Z,16.95
2022-10-25T14:12:53.593Z,25.48
2022-10-25T14:15:33.921Z,14.35
2022-10-25T14:18:06.743Z,21.65
2022-10-25T14:20:35.047Z,18.08
2022-10-25T14:23:07.659Z,20.23
2022-10-25T14:25:40.179Z,25.90
2022-10-25T14:28:10.567Z,23.65
2022-10-25T14:30:45.028Z,27.48
2022-10-25T14:33:26.624Z,23.15
2022-10-25T14:36:04.785Z,29.65
2022-10-25T14:38:32.670Z,28.35
2022-10-25T14:41:03.027Z,33.03
2022-10-25T14:43:34.659Z,27.13
2022-10-25T14:46:13.668Z,28.63
2022-10-25T14:48:42.405Z,34.88
2022-10-25T14:51:19.538Z,37.53
2022-10-25T14:53:50.940Z,32.78
2022-10-25T14:56:24.246Z,35.38
2022-10-25T14:58:51.564Z,28.92
2022-10-25T15:01:20.555Z,24.67
2022-10-25T15:03:50.357Z,22.20
2022-10-25T15:06:19.029Z,18.90
2022-10-25T15:08:51.809Z,23.92
2022-10-25T15:11:20.494Z,47.90
2022-10-25T15:13:49.375Z,26.60
2022-10-25T15:16:40.843Z,23.60
2022-10-25T15:19:12.390Z,25.73
2022-10-25T15:21:42.895Z,23.55
2022-10-25T15:24:19.426Z,23.45
2022-10-25T15:27:05.846Z,23.88
2022-10-25T15:29:41.894Z,24.65
2022-10-25T15:32:20.415Z,37.17
2022-10-25T15:34:59.035Z,42.03
2022-10-25T15:37:27.509Z,40.25
2022-10-25T15:39:56.000Z,27.95
2022-10-25T15:42:25.761Z,141.48
2022-10-25T15:44:52.821Z,101.90
2022-10-25T15:47:32.195Z,63.47
2022-10-25T15:49:59.839Z,32.00
2022-10-25T15:52:26.938Z,30.88
2022-10-25T15:54:54.002Z,28.13
2022-10-25T15:57:21.210Z,58.38
2022-10-25T15:59:48.145Z,47.90
2022-10-25T16:02:21.051Z,66.35
2022-10-25T16:04:48.211Z,41.10
2022-10-25T16:07:15.721Z,37.65
2022-10-25T16:09:43.199Z,65.50
2022-10-25T16:12:17.162Z,44.10
2022-10-25T16:14:44.094Z,52.20
2022-10-25T16:17:12.127Z,81.80
2022-10-25T16:19:38.939Z,73.80
2022-10-25T16:22:06.097Z,55.70
2022-10-25T16:24:32.972Z,33.20
2022-10-25T16:27:01.308Z,22.13
2022-10-25T16:29:28.268Z,24.00
2022-10-25T16:31:55.411Z,37.75
2022-10-25T16:34:22.260Z,29.35
2022-10-25T16:36:52.489Z,37.33
2022-10-25T16:39:19.514Z,37.58
2022-10-25T16:41:47.209Z,38.00
2022-10-25T16:44:19.235Z,56.38
2022-10-25T16:46:46.590Z,41.15
2022-10-25T16:49:13.500Z,40.90
2022-10-25T16:51:41.044Z,34.63
2022-10-25T16:54:08.713Z,20.67
2022-10-25T16:56:35.801Z,20.77
2022-10-25T16:59:02.831Z,24.80
2022-10-25T17:01:34.592Z,19.25
2022-10-25T17:04:04.107Z,22.17
2022-10-25T17:06:46.711Z,20.30
2022-10-25T17:09:13.701Z,20.55
2022-10-25T17:11:41.109Z,25.67
2022-10-25T17:14:11.768Z,22.33
2022-10-25T17:16:39.615Z,22.23
2022-10-25T17:19:06.563Z,29.10
2022-10-25T17:21:35.856Z,20.95
2022-10-25T17:24:04.691Z,21.45
2022-10-25T17:26:32.458Z,15.57
2022-10-25T17:29:00.918Z,20.58
2022-10-25T17:31:32.718Z,18.00
2022-10-25T17:34:00.503Z,14.70
2022-10-25T17:36:29.268Z,16.05
2022-10-25T17:38:56.149Z,16.77
2022-10-25T17:41:23.292Z,17.55
2022-10-25T17:43:52.075Z,24.15
2022-10-25T17:46:25.467Z,35.70
2022-10-25T17:48:57.163Z,33.85
2022-10-25T17:51:24.303Z,16.45
2022-10-25T17:53:54.212Z,18.33
2022-10-25T17:56:23.190Z,14.73
2022-10-25T17:58:50.725Z,14.90
2022-10-25T18:01:21.531Z,17.50
2022-10-25T18:03:48.764Z,17.40
2022-10-25T18:06:18.091Z,24.23
2022-10-25T18:08:48.176Z,26.48
2022-10-25T18:11:19.436Z,21.98
2022-10-25T18:13:46.366Z,24.30
2022-10-25T18:16:14.119Z,40.88
2022-10-25T18:18:41.081Z,29.75
2022-10-25T18:21:11.245Z,28.00
2022-10-25T18:23:38.818Z,22.65
2022-10-25T18:26:06.826Z,20.35
2022-10-25T18:28:34.090Z,28.70
2022-10-25T18:31:03.998Z,24.23
2022-10-25T18:33:32.018Z,33.25
2022-10-25T18:36:00.794Z,36.08
2022-10-25T18:38:27.913Z,29.98
2022-10-25T18:40:55.184Z,42.72
2022-10-25T18:43:23.515Z,57.47
2022-10-25T18:45:56.021Z,41.28
2022-10-25T18:48:23.179Z,27.77
2022-10-25T18:50:50.814Z,25.77
2022-10-25T18:53:18.462Z,25.35
2022-10-25T18:55:53.222Z,29.38
2022-10-25T18:58:20.575Z,42.15
2022-10-25T19:00:48.167Z,52.75
2022-10-25T19:03:16.583Z,43.15
2022-10-25T19:05:44.528Z,43.10
2022-10-25T19:08:12.331Z,41.75
2022-10-25T19:10:40.888Z,31.83
2022-10-25T19:13:12.465Z,39.25
2022-10-25T19:15:40.174Z,65.50
2022-10-25T19:18:07.790Z,31.25
2022-10-25T19:20:38.879Z,29.17
2022-10-25T19:23:08.620Z,40.10
2022-10-25T19:25:36.982Z,39.95
2022-10-25T19:28:04.624Z,44.10
2022-10-25T19:30:35.496Z,39.17
2022-10-25T19:33:05.360Z,30.52
2022-10-25T19:35:33.722Z,39.30
2022-10-25T19:38:01.080Z,29.70
2022-10-25T19:40:28.783Z,34.72
2022-10-25T19:42:56.084Z,38.70
2022-10-25T19:45:24.448Z,35.17
2022-10-25T19:47:55.976Z,37.13
2022-10-25T19:50:24.017Z,29.95
2022-10-25T19:52:51.855Z,24.88
2022-10-25T19:55:19.112Z,26.63
2022-10-25T19:57:46.181Z,32.40
2022-10-25T20:00:13.987Z,33.45
2022-10-25T20:02:41.199Z,30.33
2022-10-25T20:05:08.850Z,34.78
2022-10-25T20:07:35.985Z,41.65
2022-10-25T20:10:04.865Z,31.52
2022-10-25T20:12:31.819Z,32.97
2022-10-25T20:14:59.297Z,31.92
2022-10-25T20:17:26.244Z,27.90
2022-10-25T20:19:53.391Z,28.88
2022-10-25T20:22:20.245Z,39.35
2022-10-25T20:24:47.572Z,44.85
2022-10-25T20:27:14.495Z,38.83
2022-10-25T20:29:41.615Z,33.22
2022-10-25T20:32:08.529Z,47.17
2022-10-25T20:34:37.439Z,42.90
2022-10-25T20:37:05.141Z,39.55
2022-10-25T20:39:32.258Z,33.25
2022-10-25T20:41:59.164Z,38.00
2022-10-25T20:44:26.250Z,36.63
2022-10-25T20:46:53.061Z,34.00
2022-10-25T20:49:20.177Z,34.17
2022-10-25T20:51:47.026Z,32.65
2022-10-25T20:54:14.185Z,33.08
2022-10-25T20:56:41.034Z,40.20
2022-10-25T20:59:09.056Z,38.80
2022-10-25T21:01:36.150Z,31.77
2022-10-25T21:04:03.602Z,35.63
2022-10-25T21:06:30.473Z,35.10
2022-10-25T21:08:57.622Z,36.58
2022-10-25T21:11:24.530Z,32.15
2022-10-25T21:13:51.694Z,33.83
2022-10-25T21:16:18.641Z,29.98
2022-10-25T21:18:46.124Z,31.70
2022-10-25T21:21:18.058Z,34.03
2022-10-25T21:23:46.377Z,35.20
2022-10-25T21:26:13.383Z,35.28
2022-10-25T21:28:41.564Z,32.60
2022-10-25T21:31:10.813Z,34.97
2022-10-25T21:33:38.468Z,32.47
2022-10-25T21:36:09.848Z,34.33
2022-10-25T21:38:37.197Z,30.45
2022-10-25T21:41:14.775Z,34.67
2022-10-25T21:43:44.054Z,33.00
2022-10-25T21:46:11.678Z,30.83
2022-10-25T21:48:38.899Z,31.20
2022-10-25T21:51:05.990Z,28.65
2022-10-25T21:53:33.106Z,37.30
2022-10-25T21:56:11.149Z,37.60
2022-10-25T21:58:43.002Z,36.55
2022-10-25T22:01:21.250Z,29.77
2022-10-25T22:03:48.513Z,32.72
2022-10-25T22:06:17.719Z,31.15
2022-10-25T22:08:45.621Z,29.75
2022-10-25T22:11:18.482Z,34.50
2022-10-25T22:13:46.445Z,31.30
2022-10-25T22:16:14.144Z,33.00
2022-10-25T22:18:41.481Z,30.30
2022-10-25T22:21:11.130Z,37.35
2022-10-25T22:23:38.911Z,32.40
2022-10-25T22:26:11.786Z,40.58
2022-10-25T22:28:40.974Z,31.92
2022-10-25T22:31:11.127Z,37.67
2022-10-25T22:33:38.656Z,35.60
2022-10-25T22:36:08.520Z,36.17
2022-10-25T22:38:35.874Z,33.00
2022-10-25T22:41:09.391Z,35.38
2022-10-25T22:43:37.499Z,35.00
2022-10-25T22:46:06.760Z,39.35
2022-10-25T22:48:35.706Z,33.65
2022-10-25T22:51:02.615Z,36.15
2022-10-25T22:53:29.969Z,33.83
2022-10-25T22:56:02.246Z,34.70
2022-10-25T22:58:32.633Z,31.80
2022-10-25T23:01:07.200Z,33.53
2022-10-25T23:03:39.100Z,33.25
2022-10-25T23:06:08.149Z,31.17
2022-10-25T23:08:35.229Z,32.00
2022-10-25T23:11:07.505Z,28.88
2022-10-25T23:13:36.023Z,33.53
2022-10-25T23:16:03.875Z,29.90
2022-10-25T23:18:31.234Z,31.92
2022-10-25T23:20:59.728Z,31.90
2022-10-25T23:23:28.195Z,30.23
2022-10-25T23:25:57.302Z,33.38
2022-10-25T23:28:24.562Z,32.00
2022-10-25T23:30:51.437Z,35.58
2022-10-25T23:33:18.484Z,33.72
2022-10-25T23:35:45.333Z,31.05
2022-10-25T23:38:13.539Z,29.92
2022-10-25T23:40:40.545Z,28.30
2022-10-25T23:43:08.607Z,31.73
2022-10-25T23:45:35.493Z,33.45
2022-10-25T23:48:02.559Z,30.77
2022-10-25T23:50:29.382Z,25.80
2022-10-25T23:52:56.507Z,30.13
2022-10-25T23:55:23.347Z,25.70
2022-10-25T23:57:56.499Z,30.75
